首页
METAR-TAF:

METAR-TAF

机场 :

查塔努加, 田纳西州, 美国

纬度: 35-02-00N, 经度: 085-12-00W, 海拔: 207米

当前天气观测

该预报发布于47分钟前的19:53 UTC
静风
温度 7°C
湿度 66%
气压 1018 hPa
能見度: 16.1公里
多云层高于6000英尺
多云层高于11000英尺
多云层高于25000英尺

METAR: KCHA 261953Z 00000KT 10SM BKN060 BKN110 BKN250 07/01 A3005 RMK AO2 SLP177 T00720006

时间: 15:40 (20:40 UTC)

预报

该预报发布于3小时和15分钟前的17:25 UTC
预报有效从26日的 18点(UTC)到 27日的 18点(UTC)
风速3节,风向多变
能見度: 10公里
多云层高于7000英尺
几率 30%
从 27日的 03点(UTC)到 27日的 05点(UTC)
能見度: 6.4公里
阴天层高于2500英尺
小雨
从 27日的 0500点(UTC)
风速节,风向
能見度: 10公里
阴天层高于3000英尺
小雨
从 27日的 0900点(UTC)
风速节,风向
能見度: 9.7公里
阴天层高于1000英尺
小雨
从 27日的 1100点(UTC)
风速节,风向
能見度: 8.0公里
阴天层高于700英尺
轻雾
几率 30%
从 27日的 11点(UTC)到 27日的 14点(UTC)
能見度: 3.2公里
阴天层高于400英尺
小雨, 轻雾
从 27日的 1400点(UTC)
风速节,风向
能見度: 8.0公里
多云层高于500英尺
轻雾
从 27日的 1600点(UTC)
风速3节,风向多变
能見度: 9.7公里
多云层高于1300英尺
轻雾

TAF: KCHA 261725Z 2618/2718 VRB03KT P6SM BKN070 PROB30 2703/2705 4SM -RA OVC025 FM270500 00000KT P6SM -RA OVC030 FM270900 00000KT 6SM -RA OVC010 FM271100 00000KT 5SM BR OVC007 PROB30 2711/2714 2SM -RA BR OVC004 FM271400 00000KT 5SM BR BKN005 FM271600 VRB03KT 6SM BR BKN013

超过4000个机场的气象观测和天气预报(METAR&TAF报告)。

可查询的气象台以黄色和红色小点在地图上表示。

将鼠标移到小点上方,可查看气象台名称。

然后点击查看天气观测和预报。

如需切换地图:点击带黑十字的绿色按钮放大地图;点击带横线的绿色按钮缩小地图;或者点击绿色箭头查看邻近地区的地图。


METAR-TAF: